createdAt,value
2022-12-08T00:02:33.655Z,9.18
2022-12-08T00:05:39.144Z,8.25
2022-12-08T00:08:44.742Z,9.63
2022-12-08T00:11:31.657Z,9.68
2022-12-08T00:14:18.990Z,10.13
2022-12-08T00:17:07.729Z,8.02
2022-12-08T00:19:54.710Z,8.45
2022-12-08T00:22:41.628Z,7.93
2022-12-08T00:25:28.569Z,10.73
2022-12-08T00:28:15.509Z,7.32
2022-12-08T00:31:08.760Z,6.82
2022-12-08T00:33:55.749Z,7.00
2022-12-08T00:36:42.894Z,11.23
2022-12-08T00:39:29.900Z,6.63
2022-12-08T00:42:17.212Z,9.05
2022-12-08T00:45:04.644Z,9.57
2022-12-08T00:47:51.573Z,10.20
2022-12-08T00:50:38.485Z,8.32
2022-12-08T00:53:25.504Z,8.27
2022-12-08T00:56:12.383Z,10.82
2022-12-08T00:58:59.585Z,6.57
2022-12-08T01:01:47.495Z,7.38
2022-12-08T01:04:34.409Z,6.85
2022-12-08T01:07:21.336Z,14.90
2022-12-08T01:10:08.897Z,8.75
2022-12-08T01:12:55.783Z,8.00
2022-12-08T01:15:42.727Z,6.40
2022-12-08T01:18:29.748Z,7.63
2022-12-08T01:21:17.392Z,7.43
2022-12-08T01:24:04.960Z,8.45
2022-12-08T01:26:51.932Z,9.52
2022-12-08T01:29:38.896Z,8.63
2022-12-08T01:32:25.888Z,8.73
2022-12-08T01:35:13.704Z,7.57
2022-12-08T01:38:00.596Z,7.22
2022-12-08T01:40:47.548Z,7.78
2022-12-08T01:43:54.347Z,7.32
2022-12-08T01:46:43.677Z,11.57
2022-12-08T01:49:34.724Z,10.60
2022-12-08T01:52:35.616Z,8.63
2022-12-08T01:55:53.858Z,10.30
2022-12-08T01:58:47.930Z,9.57
2022-12-08T02:01:34.993Z,12.02
2022-12-08T02:04:22.008Z,8.10
2022-12-08T02:07:12.584Z,10.43
2022-12-08T02:10:00.117Z,8.07
2022-12-08T02:12:48.877Z,8.40
2022-12-08T02:16:00.363Z,12.77
2022-12-08T02:19:34.305Z,8.98
2022-12-08T02:22:32.831Z,8.20
2022-12-08T02:25:35.631Z,8.88
2022-12-08T02:29:04.167Z,7.43
2022-12-08T02:32:44.823Z,12.13
2022-12-08T02:35:46.653Z,10.63
2022-12-08T02:39:03.676Z,6.95
2022-12-08T02:42:12.371Z,10.80
2022-12-08T02:45:51.974Z,8.48
2022-12-08T02:48:39.992Z,9.63
2022-12-08T02:51:26.951Z,9.68
2022-12-08T02:54:15.129Z,9.10
2022-12-08T02:57:32.029Z,8.88
2022-12-08T03:00:21.606Z,9.65
2022-12-08T03:03:35.024Z,8.07
2022-12-08T03:06:57.591Z,8.43
2022-12-08T03:09:56.458Z,8.60
2022-12-08T03:12:49.608Z,13.18
2022-12-08T03:15:38.909Z,8.90
2022-12-08T03:18:31.696Z,7.50
2022-12-08T03:21:20.631Z,11.52
2022-12-08T03:24:10.445Z,9.30
2022-12-08T03:27:03.777Z,7.35
2022-12-08T03:29:53.422Z,10.10
2022-12-08T03:32:47.948Z,8.18
2022-12-08T03:35:39.292Z,9.57
2022-12-08T03:38:26.297Z,8.57
2022-12-08T03:41:19.118Z,11.82
2022-12-08T03:44:06.217Z,10.98
2022-12-08T03:46:53.153Z,9.13
2022-12-08T03:49:40.853Z,25.25
2022-12-08T03:52:28.000Z,7.38
2022-12-08T03:55:15.727Z,11.27
2022-12-08T03:58:02.655Z,11.43
2022-12-08T04:00:49.857Z,9.85
2022-12-08T04:03:36.958Z,8.10
2022-12-08T04:06:24.351Z,9.65
2022-12-08T04:09:11.335Z,7.60
2022-12-08T04:11:58.257Z,6.72
2022-12-08T04:14:45.175Z,7.40
2022-12-08T04:17:32.141Z,6.38
2022-12-08T04:20:19.049Z,8.00
2022-12-08T04:23:05.968Z,7.47
2022-12-08T04:25:54.538Z,8.52
2022-12-08T04:28:41.510Z,7.18
2022-12-08T04:31:28.444Z,8.43
2022-12-08T04:34:15.524Z,8.57
2022-12-08T04:37:02.446Z,8.63
2022-12-08T04:39:49.367Z,7.18
2022-12-08T04:42:36.431Z,11.15
2022-12-08T04:45:23.355Z,10.05
2022-12-08T04:48:13.151Z,8.65
2022-12-08T04:51:00.180Z,9.68
2022-12-08T04:53:47.383Z,6.85
2022-12-08T04:56:34.476Z,9.45
2022-12-08T04:59:21.360Z,8.57
2022-12-08T05:02:08.685Z,11.30
2022-12-08T05:04:55.697Z,10.52
2022-12-08T05:07:42.670Z,9.20
2022-12-08T05:10:29.609Z,8.40
2022-12-08T05:13:16.646Z,8.80
2022-12-08T05:16:09.956Z,8.20
2022-12-08T05:18:56.888Z,10.85
2022-12-08T05:21:44.401Z,7.95
2022-12-08T05:24:31.351Z,9.63
2022-12-08T05:27:18.295Z,11.00
2022-12-08T05:30:06.537Z,7.40
2022-12-08T05:32:53.619Z,10.52
2022-12-08T05:35:40.616Z,12.88
2022-12-08T05:38:27.552Z,8.38
2022-12-08T05:41:20.511Z,10.23
2022-12-08T05:46:54.356Z,8.25
2022-12-08T05:49:41.249Z,11.90
2022-12-08T05:52:28.357Z,7.15
2022-12-08T05:55:15.331Z,5.28
2022-12-08T05:58:07.658Z,5.70
2022-12-08T06:00:54.980Z,7.20
2022-12-08T06:03:41.944Z,9.38
2022-12-08T06:06:29.823Z,6.80
2022-12-08T06:09:17.035Z,8.73
2022-12-08T06:12:04.155Z,6.75
2022-12-08T06:14:51.197Z,10.65
2022-12-08T06:17:38.117Z,8.35
2022-12-08T06:20:25.068Z,6.28
2022-12-08T06:23:12.012Z,15.45
2022-12-08T06:26:03.656Z,8.07
2022-12-08T06:28:51.159Z,8.05
2022-12-08T06:31:38.305Z,8.80
2022-12-08T06:34:25.424Z,10.13
2022-12-08T06:37:12.367Z,10.90
2022-12-08T06:39:59.413Z,8.95
2022-12-08T06:42:47.293Z,8.90
2022-12-08T06:45:34.321Z,6.85
2022-12-08T06:48:21.283Z,10.38
2022-12-08T06:51:13.777Z,7.45
2022-12-08T06:54:01.493Z,14.48
2022-12-08T06:56:48.368Z,8.65
2022-12-08T06:59:35.328Z,10.30
2022-12-08T07:02:22.769Z,8.18
2022-12-08T07:05:09.698Z,15.40
2022-12-08T07:07:56.674Z,17.75
2022-12-08T07:10:46.572Z,12.90
2022-12-08T07:13:33.427Z,9.85
2022-12-08T07:16:20.464Z,10.73
2022-12-08T07:19:07.492Z,13.02
2022-12-08T07:21:54.421Z,8.98
2022-12-08T07:24:41.266Z,10.73
2022-12-08T07:27:28.653Z,7.03
2022-12-08T07:30:15.622Z,7.68
2022-12-08T07:33:04.798Z,8.88
2022-12-08T07:36:00.041Z,8.80
2022-12-08T07:38:47.632Z,6.13
2022-12-08T07:41:34.555Z,8.55
2022-12-08T07:44:21.441Z,7.90
2022-12-08T07:47:08.335Z,7.53
2022-12-08T07:49:55.242Z,8.13
2022-12-08T07:52:42.066Z,8.20
2022-12-08T07:55:29.023Z,7.97
2022-12-08T07:58:15.838Z,7.20
2022-12-08T08:01:03.324Z,7.55
2022-12-08T08:03:50.345Z,10.52
2022-12-08T08:06:37.987Z,9.10
2022-12-08T08:09:04.651Z,16.15
2022-12-08T08:11:31.209Z,11.15
2022-12-08T08:13:58.233Z,9.45
2022-12-08T08:16:24.937Z,8.48
2022-12-08T08:18:51.774Z,8.77
2022-12-08T08:21:44.418Z,14.30
2022-12-08T08:24:06.265Z,11.57
2022-12-08T08:26:32.861Z,11.85
2022-12-08T08:28:59.440Z,10.95
2022-12-08T08:31:27.068Z,8.57
2022-12-08T08:33:54.059Z,11.57
2022-12-08T08:36:22.090Z,9.65
2022-12-08T08:38:48.790Z,8.52
2022-12-08T08:41:15.379Z,7.25
2022-12-08T08:43:41.965Z,11.90
2022-12-08T08:46:09.111Z,10.48
2022-12-08T08:48:36.275Z,12.25
2022-12-08T08:51:11.627Z,9.57
2022-12-08T08:53:38.408Z,9.07
2022-12-08T08:56:13.517Z,10.82
2022-12-08T08:58:40.754Z,9.02
2022-12-08T09:01:07.657Z,10.55
2022-12-08T09:03:34.588Z,7.10
2022-12-08T09:06:01.202Z,6.82
2022-12-08T09:08:27.879Z,9.23
2022-12-08T09:10:55.074Z,14.85
2022-12-08T09:13:22.383Z,12.02
2022-12-08T09:15:49.253Z,7.20
2022-12-08T09:18:15.859Z,9.32
2022-12-08T09:20:42.537Z,13.20
2022-12-08T09:23:09.094Z,9.77
2022-12-08T09:25:35.677Z,7.70
2022-12-08T09:28:02.276Z,7.78
2022-12-08T09:30:28.858Z,11.25
2022-12-08T09:32:55.484Z,7.32
2022-12-08T09:35:22.058Z,9.82
2022-12-08T09:37:48.574Z,8.27
2022-12-08T09:40:18.921Z,8.25
2022-12-08T09:43:24.593Z,8.70
2022-12-08T09:45:51.783Z,8.88
2022-12-08T09:48:23.290Z,8.63
2022-12-08T09:50:58.027Z,10.45
2022-12-08T09:53:37.116Z,7.93
2022-12-08T09:56:17.015Z,10.25
2022-12-08T09:59:32.365Z,9.23
2022-12-08T10:02:01.053Z,7.43
2022-12-08T10:04:38.553Z,9.52
2022-12-08T10:07:48.330Z,7.65
2022-12-08T10:11:04.528Z,9.10
2022-12-08T10:13:40.488Z,8.00
2022-12-08T10:16:30.387Z,8.73
2022-12-08T10:19:09.246Z,7.40
2022-12-08T10:21:35.863Z,7.65
2022-12-08T10:24:11.459Z,9.02
2022-12-08T10:26:38.249Z,8.30
2022-12-08T10:29:06.502Z,8.43
2022-12-08T10:31:33.304Z,9.15
2022-12-08T10:34:01.992Z,10.73
2022-12-08T10:36:57.405Z,9.80
2022-12-08T10:39:38.905Z,7.75
2022-12-08T10:42:20.749Z,9.02
2022-12-08T10:45:03.999Z,10.37
2022-12-08T10:47:37.011Z,8.13
2022-12-08T10:50:27.912Z,8.93
2022-12-08T10:53:28.959Z,9.63
2022-12-08T10:56:16.197Z,10.38
2022-12-08T10:58:47.881Z,8.65
2022-12-08T11:01:24.035Z,10.75
2022-12-08T11:03:52.065Z,12.80
2022-12-08T11:06:20.524Z,10.13
2022-12-08T11:09:36.381Z,11.20
2022-12-08T11:12:30.504Z,10.30
2022-12-08T11:15:03.380Z,12.40
2022-12-08T11:17:39.436Z,11.25
2022-12-08T11:20:24.205Z,11.40
2022-12-08T11:22:55.893Z,15.00
2022-12-08T11:25:27.716Z,17.67
2022-12-08T11:27:58.132Z,15.65
2022-12-08T11:30:31.851Z,18.88
2022-12-08T11:33:18.317Z,15.60
2022-12-08T11:35:50.041Z,14.52
2022-12-08T11:38:22.704Z,12.93
2022-12-08T11:40:58.556Z,15.27
2022-12-08T11:43:58.616Z,16.85
2022-12-08T11:46:32.505Z,12.70
2022-12-08T11:49:13.082Z,12.35
2022-12-08T11:52:02.722Z,14.60
2022-12-08T11:54:38.833Z,17.50
2022-12-08T11:57:10.839Z,13.68
2022-12-08T11:59:50.865Z,17.38
2022-12-08T12:02:25.380Z,15.50
2022-12-08T12:06:08.594Z,13.63
2022-12-08T12:09:22.922Z,17.58
2022-12-08T12:12:26.643Z,18.73
2022-12-08T12:15:52.632Z,21.65
2022-12-08T12:44:38.159Z,19.52
2022-12-08T12:47:11.554Z,24.92
2022-12-08T12:50:06.565Z,22.60
2022-12-08T12:52:37.661Z,24.52
2022-12-08T12:55:50.284Z,21.90
2022-12-08T12:58:53.646Z,21.50
2022-12-08T13:01:37.997Z,20.58
2022-12-08T13:04:11.089Z,21.77
2022-12-08T13:06:48.570Z,20.73
2022-12-08T13:09:21.643Z,21.17
2022-12-08T13:11:54.937Z,22.02
2022-12-08T13:14:34.507Z,24.38
2022-12-08T13:17:05.129Z,20.42
2022-12-08T13:19:33.116Z,25.65
2022-12-08T13:22:00.249Z,18.50
2022-12-08T13:24:33.907Z,22.25
2022-12-08T13:27:32.377Z,20.55
2022-12-08T13:30:36.398Z,22.08
2022-12-08T13:33:19.363Z,21.45
2022-12-08T13:35:56.476Z,18.67
2022-12-08T13:38:29.209Z,20.33
2022-12-08T13:40:57.156Z,18.65
2022-12-08T13:44:20.252Z,32.08
2022-12-08T13:58:37.786Z,32.90
2022-12-08T14:01:15.147Z,29.40
2022-12-08T14:04:31.093Z,23.55
2022-12-08T14:06:48.782Z,21.88
2022-12-08T14:09:23.971Z,22.00
2022-12-08T14:12:05.399Z,23.10
2022-12-08T14:15:02.423Z,23.55
2022-12-08T14:17:30.621Z,22.38
2022-12-08T14:20:25.679Z,23.60
2022-12-08T14:22:53.648Z,26.77
2022-12-08T14:25:21.192Z,28.63
2022-12-08T14:27:48.725Z,27.95
2022-12-08T14:30:28.684Z,24.35
2022-12-08T14:33:01.034Z,25.83
2022-12-08T14:35:38.322Z,23.95
2022-12-08T14:38:13.201Z,23.73
2022-12-08T14:40:47.214Z,24.70
2022-12-08T14:43:26.301Z,20.38
2022-12-08T14:45:56.177Z,23.80
2022-12-08T14:48:42.733Z,23.88
2022-12-08T14:51:31.610Z,24.45
2022-12-08T14:54:22.777Z,21.33
2022-12-08T14:56:53.013Z,23.05
2022-12-08T14:59:31.121Z,22.42
2022-12-08T15:02:31.374Z,23.80
2022-12-08T15:05:04.934Z,24.42
2022-12-08T15:07:47.287Z,25.40
2022-12-08T15:10:26.668Z,28.48
2022-12-08T15:13:31.618Z,23.15
2022-12-08T15:15:58.537Z,29.30
2022-12-08T15:19:02.012Z,24.27
2022-12-08T15:21:31.039Z,20.80
2022-12-08T15:23:57.634Z,25.88
2022-12-08T15:26:26.312Z,24.15
2022-12-08T15:28:53.433Z,24.65
2022-12-08T15:31:20.897Z,24.45
2022-12-08T15:33:48.236Z,29.20
2022-12-08T15:36:14.758Z,46.05
2022-12-08T15:38:42.870Z,96.15
2022-12-08T15:41:14.633Z,73.93
2022-12-08T15:43:41.942Z,71.90
2022-12-08T15:46:08.594Z,52.47
2022-12-08T15:48:37.365Z,43.35
2022-12-08T15:51:04.088Z,48.90
2022-12-08T15:53:32.124Z,49.72
2022-12-08T15:58:55.522Z,46.55
2022-12-08T16:01:23.369Z,45.95
2022-12-08T16:09:31.272Z,49.83
2022-12-08T16:12:16.840Z,35.95
2022-12-08T16:17:31.568Z,37.80
2022-12-08T16:19:59.208Z,35.90
2022-12-08T16:25:20.384Z,33.55
2022-12-08T16:28:44.798Z,29.50
2022-12-08T16:30:40.102Z,165.38
2022-12-08T16:33:06.927Z,142.48
2022-12-08T16:35:33.572Z,69.05
2022-12-08T16:38:00.242Z,59.65
2022-12-08T16:40:26.864Z,47.38
2022-12-08T16:42:53.504Z,45.10
2022-12-08T16:45:25.965Z,32.33
2022-12-08T16:50:26.766Z,33.92
2022-12-08T16:52:59.904Z,38.72
2022-12-08T16:55:27.069Z,27.95
2022-12-08T16:57:54.255Z,26.38
2022-12-08T17:00:23.736Z,24.33
2022-12-08T17:02:51.697Z,29.73
2022-12-08T17:05:20.360Z,29.00
2022-12-08T17:07:49.087Z,20.60
2022-12-08T17:10:18.814Z,30.58
2022-12-08T17:12:46.007Z,20.23
2022-12-08T17:15:19.776Z,25.80
2022-12-08T17:17:46.451Z,25.52
2022-12-08T17:20:16.011Z,26.00
2022-12-08T17:22:42.626Z,25.45
2022-12-08T17:25:09.678Z,99.28
2022-12-08T17:27:36.996Z,48.60
2022-12-08T17:30:05.174Z,37.03
2022-12-08T17:32:32.154Z,29.48
2022-12-08T17:34:58.865Z,30.80
2022-12-08T17:37:26.200Z,44.65
2022-12-08T17:39:52.848Z,36.72
2022-12-08T17:42:19.455Z,40.08
2022-12-08T17:44:46.756Z,36.00
2022-12-08T17:47:13.298Z,38.50
2022-12-08T17:49:39.847Z,42.92
2022-12-08T17:52:10.768Z,34.47
2022-12-08T17:54:37.900Z,30.00
2022-12-08T17:57:05.543Z,29.08
2022-12-08T17:59:32.903Z,29.73
2022-12-08T18:01:59.739Z,31.02
2022-12-08T18:04:27.801Z,32.75
2022-12-08T18:06:54.978Z,51.92
2022-12-08T18:09:21.799Z,47.95
2022-12-08T18:11:48.435Z,36.60
2022-12-08T18:14:16.074Z,29.00
2022-12-08T18:16:45.218Z,36.38
2022-12-08T18:19:13.186Z,45.95
2022-12-08T18:21:41.456Z,85.85
2022-12-08T18:24:14.282Z,97.63
2022-12-08T18:26:40.869Z,100.55
2022-12-08T18:29:07.444Z,89.55
2022-12-08T18:31:34.160Z,71.40
2022-12-08T18:34:00.735Z,86.47
2022-12-08T18:36:28.836Z,68.45
2022-12-08T18:38:55.710Z,50.90
2022-12-08T18:41:25.672Z,46.83
2022-12-08T18:43:54.279Z,41.10
2022-12-08T18:46:21.345Z,40.40
2022-12-08T18:48:49.645Z,43.08
2022-12-08T18:51:18.921Z,36.17
2022-12-08T18:53:46.734Z,38.17
2022-12-08T18:56:31.246Z,40.47
2022-12-08T18:59:03.356Z,33.13
2022-12-08T19:01:35.409Z,36.25
2022-12-08T19:04:27.274Z,35.30
2022-12-08T19:06:52.772Z,34.10
2022-12-08T19:09:19.935Z,40.25
2022-12-08T19:11:46.567Z,39.53
2022-12-08T19:14:13.316Z,35.88
2022-12-08T19:16:39.911Z,39.88
2022-12-08T19:19:06.504Z,32.58
2022-12-08T19:21:34.124Z,61.50
2022-12-08T19:24:01.545Z,43.65
2022-12-08T19:26:28.764Z,51.67
2022-12-08T19:28:56.207Z,46.28
2022-12-08T19:31:23.063Z,61.60
2022-12-08T19:33:49.764Z,50.08
2022-12-08T19:36:19.154Z,49.60
2022-12-08T19:39:04.506Z,33.45
2022-12-08T19:41:50.282Z,39.20
2022-12-08T19:44:48.737Z,36.50
2022-12-08T19:47:15.604Z,33.08
2022-12-08T19:49:42.294Z,36.30
2022-12-08T19:52:09.171Z,38.22
2022-12-08T19:54:36.111Z,33.42
2022-12-08T19:57:03.182Z,33.75
2022-12-08T19:59:30.338Z,26.77
2022-12-08T20:01:58.623Z,36.50
2022-12-08T20:04:26.849Z,30.27
2022-12-08T20:06:55.423Z,29.58
2022-12-08T20:09:23.504Z,31.63
2022-12-08T20:11:50.882Z,30.35
2022-12-08T20:14:21.208Z,34.50
2022-12-08T20:16:47.984Z,26.13
2022-12-08T20:19:14.613Z,30.23
2022-12-08T20:21:41.199Z,33.55
2022-12-08T20:24:08.037Z,28.70
2022-12-08T20:26:34.757Z,31.55
2022-12-08T20:29:01.384Z,34.92
2022-12-08T20:31:30.562Z,26.65
2022-12-08T20:33:57.298Z,33.80
2022-12-08T20:36:24.403Z,29.08
2022-12-08T20:38:52.872Z,35.00
2022-12-08T20:41:20.420Z,32.80
2022-12-08T20:43:47.841Z,33.42
2022-12-08T20:46:16.996Z,35.22
2022-12-08T20:48:44.598Z,32.10
2022-12-08T20:51:19.313Z,38.97
2022-12-08T20:53:46.752Z,39.65
2022-12-08T20:56:15.688Z,43.33
2022-12-08T20:58:42.906Z,50.97
2022-12-08T21:01:14.401Z,58.50
2022-12-08T21:03:41.702Z,63.53
2022-12-08T21:06:08.900Z,65.50
2022-12-08T21:08:35.993Z,67.95
2022-12-08T21:11:03.486Z,52.95
2022-12-08T21:13:30.205Z,45.72
2022-12-08T21:15:57.552Z,45.92
2022-12-08T21:18:24.555Z,48.60
2022-12-08T21:20:51.912Z,49.53
2022-12-08T21:23:19.239Z,54.35
2022-12-08T21:25:47.352Z,52.70
2022-12-08T21:28:13.968Z,48.42
2022-12-08T21:30:41.751Z,51.83
2022-12-08T21:33:08.719Z,43.45
2022-12-08T21:35:35.426Z,46.80
2022-12-08T21:38:02.208Z,49.10
2022-12-08T21:40:28.975Z,47.60
2022-12-08T21:42:55.739Z,42.38
2022-12-08T21:45:22.653Z,44.95
2022-12-08T21:47:50.695Z,43.65
2022-12-08T21:50:18.601Z,43.88
2022-12-08T21:52:47.944Z,44.72
2022-12-08T21:55:16.372Z,65.47
2022-12-08T21:57:43.240Z,49.63
2022-12-08T22:00:13.385Z,47.70
2022-12-08T22:02:40.649Z,42.42
2022-12-08T22:05:07.912Z,43.72
2022-12-08T22:07:38.423Z,39.65
2022-12-08T22:10:07.707Z,43.05
2022-12-08T22:12:35.977Z,42.80
2022-12-08T22:15:05.748Z,41.67
2022-12-08T22:17:36.439Z,38.40
2022-12-08T22:20:08.102Z,39.22
2022-12-08T22:22:35.374Z,40.20
2022-12-08T22:25:03.267Z,41.58
2022-12-08T22:27:30.110Z,47.70
2022-12-08T22:29:56.757Z,66.10
2022-12-08T22:32:23.502Z,82.45
2022-12-08T22:34:50.127Z,67.03
2022-12-08T22:37:16.856Z,57.45
2022-12-08T22:39:43.475Z,46.28
2022-12-08T22:42:10.111Z,34.92
2022-12-08T22:44:36.677Z,30.48
2022-12-08T22:47:03.511Z,32.45
2022-12-08T22:49:31.634Z,33.65
2022-12-08T22:51:58.512Z,27.05
2022-12-08T22:54:25.100Z,28.95
2022-12-08T22:56:52.345Z,28.73
2022-12-08T22:59:18.876Z,27.15
2022-12-08T23:01:45.399Z,22.33
2022-12-08T23:04:17.428Z,37.22
2022-12-08T23:06:44.829Z,29.42
2022-12-08T23:09:11.860Z,29.58
2022-12-08T23:11:38.726Z,29.65
2022-12-08T23:14:05.326Z,27.58
2022-12-08T23:16:33.559Z,30.08
2022-12-08T23:19:00.346Z,26.88
2022-12-08T23:21:27.206Z,29.48
2022-12-08T23:23:53.980Z,27.35
2022-12-08T23:26:26.915Z,29.90
2022-12-08T23:28:54.050Z,30.17
2022-12-08T23:31:21.512Z,30.25
2022-12-08T23:33:48.767Z,37.35
2022-12-08T23:36:16.673Z,31.63
2022-12-08T23:38:43.766Z,28.02
2022-12-08T23:41:11.842Z,28.90
2022-12-08T23:43:46.269Z,27.90
2022-12-08T23:46:15.122Z,29.30
2022-12-08T23:48:42.149Z,24.65
2022-12-08T23:51:09.247Z,25.73
2022-12-08T23:53:35.940Z,23.15
2022-12-08T23:56:05.743Z,27.40
2022-12-08T23:58:33.359Z,30.00
